Telluride, CO

12:58 PM MDT on September 01, 2014 (GMT -0600)
Telluride Regional | Change Station
CLOSE
Current Station
Airport
Location: Telluride,
Elevation: 9078 ft
Nearby Weather Stations

Elev 9078 ft 37.95 °N, 107.91 °W | Updated 22 minutes ago

Scattered Clouds
Scattered Clouds
70 °F
Feels Like 70 °F
N
9
Wind Variable Wind from WNW
Gusts 20 mph

Today
High -- | Low -- °F
--% Chance of Precip.
Yesterday
High -- | Low -- °F
Precip. -- in
6:41 AM 7:40 PM
Waxing Crescent, 43% visible
Pressure 30.34 in
Visibility 10.0 miles
Clouds Scattered Clouds 8500 ft
Dew Point 28 °F
Humidity 21%
Rainfall 0.00 in
Snow Depth 0 in , 10 in , 0 in
UV 9 out of 12
Pollen 9.60 out of 12
Air Quality Not available.
Flu Activity Not available.
METAR KTEX 011836Z AUTO 29008G17KT 10SM SCT085 21/M02 A3034 RMK AO2

More Conditions Fewer Conditions

Pressure 30.34 in
Visibility 10.0 miles
Clouds Scattered Clouds 8500 ft
Dew Point 28 °F
Humidity 21%
Rainfall 0.00 in
Snow Depth 0 in , 10 in , 0 in
UV 9 out of 12
Pollen 9.60 out of 12
Air Quality Not available.
Flu Activity Not available.
METAR KTEX 011836Z AUTO 29008G17KT 10SM SCT085 21/M02 A3034 RMK AO2

More Conditions Fewer Conditions

10-Day Weather Forecast

Almanac

Astronomy

Sep. 01, 2014 Rise Set
Actual Time 6:41 AM MDT 7:40 PM MDT
Civil Twilight 6:14 AM MDT 8:07 PM MDT
Nautical Twilight 5:42 AM MDT 8:39 PM MDT
Astronomical Twilight 5:09 AM MDT 9:12 PM MDT
Moon 1:23 PM MDT 11:51 PM MDT
Length of Visible Light 13h 53m
Length of Day
12h 59m
Tomorrow will be 2m 21s shorter.
Waxing Crescent, 43% of the Moon is Illuminated
Today
Waxing Crescent
Sep 2
First Quarter
Sep 8
Full
Sep 15
Last Quarter
Sep 24
New

Today's Extremes

State Highs State Lows

Community

WunderPhotos

Upload Photos

1,749,359 photos uploaded!

Nearby

Snow Depth

Station Depth Elevation
Red Mountain Pass 0 in 11150 ft
Idarado 10 in 9800 ft
Lizard Head Pass 0 in 10200 ft
Lone Cone 8 in 9600 ft
Stump Lakes 0 in 11200 ft

Earthquake Activity

City Distance Mag. Time & Date
No recent earthquake activity has been reported nearby.
Minimum magnitude displayed is 2.5.

Coastal Water Temperatures

Place Temperature
No Stations Reporting

Nearby Weather Stations